createdAt,value
2016-08-24T00:00:24.090Z,964.10
2016-08-24T00:01:22.710Z,964.11
2016-08-24T00:02:26.675Z,964.04
2016-08-24T00:03:20.314Z,964.06
2016-08-24T00:04:25.183Z,964.02
2016-08-24T00:05:24.824Z,964.03
2016-08-24T00:06:24.045Z,964.02
2016-08-24T00:07:20.923Z,964.02
2016-08-24T00:08:40.074Z,964.01
2016-08-24T00:09:18.920Z,964.03
2016-08-24T00:10:26.057Z,963.99
2016-08-24T00:11:18.102Z,964.02
2016-08-24T00:12:24.153Z,964.00
2016-08-24T00:14:22.661Z,963.97
2016-08-24T00:15:13.341Z,963.97
2016-08-24T00:16:20.203Z,963.97
2016-08-24T00:17:18.326Z,963.96
2016-08-24T00:18:26.469Z,963.91
2016-08-24T00:19:28.272Z,963.93
2016-08-24T00:20:34.159Z,963.92
2016-08-24T00:21:21.953Z,963.90
2016-08-24T00:22:28.925Z,963.91
2016-08-24T00:23:18.818Z,963.88
2016-08-24T00:24:25.214Z,963.88
2016-08-24T00:25:32.738Z,963.89
2016-08-24T00:26:22.449Z,963.87
2016-08-24T00:27:21.484Z,963.88
2016-08-24T00:28:26.512Z,963.85
2016-08-24T00:29:28.220Z,963.87
2016-08-24T00:30:26.639Z,963.85
2016-08-24T00:31:17.251Z,963.86
2016-08-24T00:32:29.224Z,963.83
2016-08-24T00:33:21.567Z,963.85
2016-08-24T00:34:20.351Z,963.84
2016-08-24T00:35:34.208Z,963.88
2016-08-24T00:36:19.527Z,963.89
2016-08-24T00:37:24.204Z,963.86
2016-08-24T00:39:44.225Z,963.91
2016-08-24T00:40:18.345Z,963.94
2016-08-24T00:41:20.222Z,963.90
2016-08-24T00:42:25.548Z,963.92
2016-08-24T00:43:17.491Z,963.91
2016-08-24T00:44:23.620Z,963.86
2016-08-24T00:45:24.538Z,963.89
2016-08-24T00:46:18.689Z,963.88
2016-08-24T00:47:28.491Z,963.85
2016-08-24T00:48:26.582Z,963.84
2016-08-24T00:49:21.233Z,963.90
2016-08-24T00:50:20.254Z,963.83
2016-08-24T00:51:21.181Z,963.85
2016-08-24T00:52:34.540Z,963.81
2016-08-24T00:53:23.540Z,963.82
2016-08-24T00:54:23.989Z,963.78
2016-08-24T00:55:25.796Z,963.78
2016-08-24T00:56:27.022Z,963.79
2016-08-24T00:57:22.004Z,963.77
2016-08-24T00:58:25.123Z,963.77
2016-08-24T00:59:20.423Z,963.77
2016-08-24T01:00:34.072Z,963.86
2016-08-24T01:01:17.640Z,963.80
2016-08-24T01:02:17.926Z,963.76
2016-08-24T01:03:28.087Z,963.78
2016-08-24T01:04:18.597Z,963.77
2016-08-24T01:06:18.305Z,963.79
2016-08-24T01:08:29.345Z,963.81
2016-08-24T01:09:34.312Z,963.80
2016-08-24T01:10:18.051Z,963.81
2016-08-24T01:11:34.345Z,963.82
2016-08-24T01:12:38.386Z,963.80
2016-08-24T01:13:22.777Z,963.82
2016-08-24T01:15:39.548Z,963.80
2016-08-24T01:16:39.853Z,963.82
2016-08-24T01:17:27.244Z,963.78
2016-08-24T01:18:24.821Z,963.76
2016-08-24T01:19:27.207Z,963.76
2016-08-24T01:20:32.954Z,963.75
2016-08-24T01:22:24.305Z,963.69
2016-08-24T01:23:22.065Z,963.71
2016-08-24T01:24:29.205Z,963.76
2016-08-24T01:25:32.798Z,963.70
2016-08-24T01:26:22.798Z,963.72
2016-08-24T01:27:26.498Z,963.71
2016-08-24T01:29:17.395Z,963.68
2016-08-24T01:30:22.701Z,963.64
2016-08-24T01:31:22.353Z,963.66
2016-08-24T01:32:14.138Z,963.66
2016-08-24T01:33:26.554Z,963.69
2016-08-24T01:34:26.893Z,963.71
2016-08-24T01:35:21.552Z,963.68
2016-08-24T01:37:34.194Z,963.69
2016-08-24T01:39:13.524Z,963.64
2016-08-24T01:40:18.556Z,963.71
2016-08-24T01:42:28.363Z,963.67
2016-08-24T01:43:27.023Z,963.66
2016-08-24T01:44:18.267Z,963.67
2016-08-24T01:45:18.189Z,963.65
2016-08-24T01:46:17.887Z,963.68
2016-08-24T01:47:18.063Z,963.68
2016-08-24T01:48:28.046Z,963.65
2016-08-24T01:49:27.228Z,963.62
2016-08-24T01:50:21.629Z,963.67
2016-08-24T01:51:39.298Z,963.67
2016-08-24T01:52:18.479Z,963.62
2016-08-24T01:53:26.275Z,963.64
2016-08-24T01:54:44.262Z,963.59
2016-08-24T01:56:14.969Z,963.60
2016-08-24T01:57:21.122Z,963.59
2016-08-24T01:58:25.678Z,963.56
2016-08-24T02:00:22.112Z,963.57
2016-08-24T02:01:27.970Z,963.60
2016-08-24T02:02:22.898Z,963.57
2016-08-24T02:03:19.878Z,963.57
2016-08-24T02:04:26.755Z,963.59
2016-08-24T02:05:19.879Z,963.56
2016-08-24T02:06:28.140Z,963.60
2016-08-24T02:07:19.451Z,963.58
2016-08-24T02:08:23.914Z,963.55
2016-08-24T02:09:23.728Z,963.52
2016-08-24T02:10:27.338Z,963.55
2016-08-24T02:11:17.503Z,963.52
2016-08-24T02:12:34.669Z,963.50
2016-08-24T02:13:21.474Z,963.50
2016-08-24T02:14:23.998Z,963.50
2016-08-24T02:15:23.524Z,963.50
2016-08-24T02:16:35.825Z,963.52
2016-08-24T02:17:27.275Z,963.48
2016-08-24T02:18:24.207Z,963.48
2016-08-24T02:19:18.925Z,963.45
2016-08-24T02:20:26.898Z,963.48
2016-08-24T02:21:24.701Z,963.45
2016-08-24T02:22:34.220Z,963.45
2016-08-24T02:23:19.747Z,963.47
2016-08-24T02:24:24.642Z,963.44
2016-08-24T02:25:22.718Z,963.44
2016-08-24T02:26:32.950Z,963.43
2016-08-24T02:27:24.415Z,963.40
2016-08-24T02:28:19.521Z,963.43
2016-08-24T02:29:17.907Z,963.42
2016-08-24T02:30:25.361Z,963.43
2016-08-24T02:31:58.740Z,963.41
2016-08-24T02:32:16.127Z,963.37
2016-08-24T02:33:17.815Z,963.40
2016-08-24T02:34:28.244Z,963.40
2016-08-24T02:36:24.490Z,963.41
2016-08-24T02:37:39.452Z,963.34
2016-08-24T02:38:23.895Z,963.38
2016-08-24T02:39:29.107Z,963.31
2016-08-24T02:40:19.912Z,963.30
2016-08-24T02:41:28.071Z,963.32
2016-08-24T02:42:21.553Z,963.30
2016-08-24T02:43:29.007Z,963.29
2016-08-24T02:44:19.865Z,963.26
2016-08-24T02:45:27.711Z,963.27
2016-08-24T02:46:27.527Z,963.26
2016-08-24T02:47:34.895Z,963.25
2016-08-24T02:48:26.781Z,963.19
2016-08-24T02:49:28.837Z,963.24
2016-08-24T02:50:22.461Z,963.19
2016-08-24T02:51:27.680Z,963.20
2016-08-24T02:52:20.009Z,963.19
2016-08-24T02:53:20.515Z,963.18
2016-08-24T02:54:23.840Z,963.20
2016-08-24T02:55:19.985Z,963.19
2016-08-24T02:56:19.383Z,963.19
2016-08-24T02:57:18.340Z,963.16
2016-08-24T02:58:26.767Z,963.16
2016-08-24T02:59:26.952Z,963.16
2016-08-24T03:01:23.449Z,963.15
2016-08-24T03:02:24.392Z,963.13
2016-08-24T03:03:26.277Z,963.12
2016-08-24T03:04:24.819Z,963.13
2016-08-24T03:05:18.940Z,963.16
2016-08-24T03:06:18.017Z,963.13
2016-08-24T03:07:23.069Z,963.16
2016-08-24T03:09:24.344Z,963.15
2016-08-24T03:10:24.643Z,963.19
2016-08-24T03:11:21.423Z,963.20
2016-08-24T03:12:19.948Z,963.17
2016-08-24T03:13:24.495Z,963.19
2016-08-24T03:14:20.764Z,963.23
2016-08-24T03:15:17.472Z,963.19
2016-08-24T03:16:18.185Z,963.19
2016-08-24T03:17:24.001Z,963.18
2016-08-24T03:18:29.330Z,963.21
2016-08-24T03:19:26.174Z,963.21
2016-08-24T03:20:26.529Z,963.23
2016-08-24T03:21:18.842Z,963.21
2016-08-24T03:22:20.060Z,963.22
2016-08-24T03:23:26.867Z,963.20
2016-08-24T03:24:24.772Z,963.21
2016-08-24T03:25:22.976Z,963.17
2016-08-24T03:26:34.019Z,963.20
2016-08-24T03:27:37.630Z,963.16
2016-08-24T03:28:22.053Z,963.16
2016-08-24T03:29:21.935Z,963.14
2016-08-24T03:30:37.075Z,963.13
2016-08-24T03:31:27.607Z,963.12
2016-08-24T03:32:23.475Z,963.11
2016-08-24T03:33:22.063Z,963.17
2016-08-24T03:34:28.081Z,963.13
2016-08-24T03:35:27.244Z,963.14
2016-08-24T03:36:33.032Z,963.12
2016-08-24T03:37:29.250Z,963.11
2016-08-24T03:38:26.517Z,963.08
2016-08-24T03:39:26.695Z,963.11
2016-08-24T03:40:19.058Z,963.11
2016-08-24T03:41:28.802Z,963.10
2016-08-24T03:42:18.353Z,963.09
2016-08-24T03:43:21.269Z,963.11
2016-08-24T03:44:21.203Z,963.11
2016-08-24T03:45:20.569Z,963.13
2016-08-24T03:46:19.227Z,963.12
2016-08-24T03:47:19.978Z,963.14
2016-08-24T03:48:26.256Z,963.10
2016-08-24T03:49:18.976Z,963.11
2016-08-24T03:51:34.911Z,963.08
2016-08-24T03:52:32.659Z,963.09
2016-08-24T03:53:24.942Z,963.05
2016-08-24T03:54:26.209Z,963.07
2016-08-24T03:55:20.581Z,963.07
2016-08-24T03:56:35.710Z,963.08
2016-08-24T03:57:27.468Z,963.12
2016-08-24T03:58:40.663Z,963.13
2016-08-24T03:59:35.643Z,963.08
2016-08-24T04:00:18.243Z,963.09
2016-08-24T04:01:34.933Z,963.11
2016-08-24T04:02:25.834Z,963.10
2016-08-24T04:03:23.757Z,963.08
2016-08-24T04:05:24.359Z,963.10
2016-08-24T04:06:26.062Z,963.08
2016-08-24T04:08:22.254Z,963.10
2016-08-24T04:09:23.441Z,963.11
2016-08-24T04:10:21.274Z,963.14
2016-08-24T04:11:22.922Z,963.11
2016-08-24T04:12:25.877Z,963.15
2016-08-24T04:13:27.371Z,963.15
2016-08-24T04:15:33.083Z,963.15
2016-08-24T04:16:39.351Z,963.19
2016-08-24T04:17:21.437Z,963.14
2016-08-24T04:18:18.611Z,963.16
2016-08-24T04:19:26.384Z,963.16
2016-08-24T04:20:22.994Z,963.15
2016-08-24T04:21:15.016Z,963.16
2016-08-24T04:22:27.158Z,963.17
2016-08-24T04:23:20.190Z,963.15
2016-08-24T04:24:35.406Z,963.19
2016-08-24T04:26:27.270Z,963.21
2016-08-24T04:27:24.047Z,963.23
2016-08-24T04:28:20.144Z,963.22
2016-08-24T04:29:21.376Z,963.28
2016-08-24T04:30:39.590Z,963.24
2016-08-24T04:31:25.007Z,963.27
2016-08-24T04:32:25.051Z,963.27
2016-08-24T04:33:28.775Z,963.25
2016-08-24T04:34:22.832Z,963.26
2016-08-24T04:35:19.273Z,963.27
2016-08-24T04:36:19.022Z,963.26
2016-08-24T04:37:20.556Z,963.26
2016-08-24T04:38:34.992Z,963.24
2016-08-24T04:39:22.587Z,963.25
2016-08-24T04:40:23.933Z,963.22
2016-08-24T04:41:26.134Z,963.19
2016-08-24T04:42:34.913Z,963.22
2016-08-24T04:43:26.829Z,963.24
2016-08-24T04:44:21.395Z,963.23
2016-08-24T04:45:27.636Z,963.25
2016-08-24T04:46:21.650Z,963.24
2016-08-24T04:47:21.212Z,963.20
2016-08-24T04:48:21.211Z,963.24
2016-08-24T04:49:27.506Z,963.21
2016-08-24T04:50:20.408Z,963.21
2016-08-24T04:51:31.901Z,963.21
2016-08-24T04:52:48.576Z,963.27
2016-08-24T04:53:19.391Z,963.25
2016-08-24T04:54:19.568Z,963.25
2016-08-24T04:55:36.315Z,963.29
2016-08-24T04:56:34.063Z,963.32
2016-08-24T04:57:23.359Z,963.27
2016-08-24T04:58:28.319Z,963.31
2016-08-24T04:59:26.779Z,963.33
2016-08-24T05:00:19.077Z,963.30
2016-08-24T05:01:18.545Z,963.35
2016-08-24T05:03:23.521Z,963.31
2016-08-24T05:04:24.513Z,963.32
2016-08-24T05:05:34.911Z,963.35
2016-08-24T05:06:18.457Z,963.33
2016-08-24T05:07:21.618Z,963.35
2016-08-24T05:08:26.815Z,963.34
2016-08-24T05:10:18.549Z,963.34
2016-08-24T05:11:25.208Z,963.30
2016-08-24T05:12:25.410Z,963.30
2016-08-24T05:13:17.476Z,963.35
2016-08-24T05:14:29.260Z,963.33
2016-08-24T05:15:15.247Z,963.37
2016-08-24T05:16:20.581Z,963.36
2016-08-24T05:17:24.169Z,963.37
2016-08-24T05:18:27.153Z,963.38
2016-08-24T05:20:33.446Z,963.39
2016-08-24T05:21:18.631Z,963.37
2016-08-24T05:22:19.713Z,963.36
2016-08-24T05:23:28.940Z,963.41
2016-08-24T05:24:22.009Z,963.37
2016-08-24T05:26:26.804Z,963.39
2016-08-24T05:27:20.906Z,963.39
2016-08-24T05:28:20.365Z,963.42
2016-08-24T05:29:21.260Z,963.42
2016-08-24T05:30:19.423Z,963.43
2016-08-24T05:31:28.975Z,963.46
2016-08-24T05:32:25.194Z,963.38
2016-08-24T05:33:23.131Z,963.41
2016-08-24T05:34:23.736Z,963.40
2016-08-24T05:35:25.983Z,963.45
2016-08-24T05:36:40.160Z,963.42
2016-08-24T05:37:39.940Z,963.42
2016-08-24T05:38:29.396Z,963.44
2016-08-24T05:39:21.809Z,963.46
2016-08-24T05:41:27.410Z,963.50
2016-08-24T05:42:28.904Z,963.49
2016-08-24T05:43:18.507Z,963.48
2016-08-24T05:44:19.086Z,963.47
2016-08-24T05:45:20.320Z,963.47
2016-08-24T05:46:18.397Z,963.52
2016-08-24T05:47:39.460Z,963.46
2016-08-24T05:48:19.348Z,963.48
2016-08-24T05:49:20.095Z,963.50
2016-08-24T05:50:26.834Z,963.52
2016-08-24T05:51:22.361Z,963.56
2016-08-24T05:52:22.263Z,963.54
2016-08-24T05:53:18.425Z,963.55
2016-08-24T05:54:24.632Z,963.52
2016-08-24T05:55:18.428Z,963.53
2016-08-24T05:56:26.430Z,963.57
2016-08-24T05:57:19.094Z,963.54
2016-08-24T05:58:21.881Z,963.53
2016-08-24T05:59:19.037Z,963.53
2016-08-24T06:00:17.111Z,963.49
2016-08-24T06:01:51.626Z,963.46
2016-08-24T06:02:28.385Z,963.48
2016-08-24T06:03:23.314Z,963.46
2016-08-24T06:04:29.256Z,963.47
2016-08-24T06:05:23.442Z,963.46
2016-08-24T06:06:27.801Z,963.46
2016-08-24T06:07:28.661Z,963.45
2016-08-24T06:08:32.382Z,963.45
2016-08-24T06:09:28.044Z,963.44
2016-08-24T06:10:27.741Z,963.46
2016-08-24T06:11:26.944Z,963.41
2016-08-24T06:12:24.159Z,963.44
2016-08-24T06:13:34.692Z,963.44
2016-08-24T06:14:28.073Z,963.44
2016-08-24T06:15:27.756Z,963.46
2016-08-24T06:16:33.274Z,963.44
2016-08-24T06:17:27.630Z,963.46
2016-08-24T06:18:18.723Z,963.47
2016-08-24T06:19:20.306Z,963.46
2016-08-24T06:20:23.227Z,963.44
2016-08-24T06:21:34.533Z,963.46
2016-08-24T06:22:21.856Z,963.46
2016-08-24T06:23:24.462Z,963.45
2016-08-24T06:24:22.203Z,963.49
2016-08-24T06:25:15.599Z,963.45
2016-08-24T06:26:17.382Z,963.49
2016-08-24T06:27:22.523Z,963.46
2016-08-24T06:28:28.316Z,963.47
2016-08-24T06:29:19.440Z,963.48
2016-08-24T06:30:30.569Z,963.47
2016-08-24T06:31:44.658Z,963.47
2016-08-24T06:32:35.433Z,963.45
2016-08-24T06:33:21.032Z,963.48
2016-08-24T06:34:17.898Z,963.50
2016-08-24T06:35:23.483Z,963.50
2016-08-24T06:37:21.771Z,963.48
2016-08-24T06:38:19.324Z,963.52
2016-08-24T06:39:18.507Z,963.49
2016-08-24T06:41:22.074Z,963.45
2016-08-24T06:42:19.556Z,963.52
2016-08-24T06:43:20.172Z,963.53
2016-08-24T06:44:25.319Z,963.48
2016-08-24T06:45:21.849Z,963.49
2016-08-24T06:46:26.557Z,963.46
2016-08-24T06:47:23.286Z,963.47
2016-08-24T06:49:24.188Z,963.48
2016-08-24T06:50:20.193Z,963.44
2016-08-24T06:51:18.393Z,963.44
2016-08-24T06:52:26.845Z,963.42
2016-08-24T06:53:35.080Z,963.41
2016-08-24T06:54:27.576Z,963.44
2016-08-24T06:55:28.299Z,963.43
2016-08-24T06:56:28.124Z,963.40
2016-08-24T06:57:44.330Z,963.39
2016-08-24T06:58:28.087Z,963.38
2016-08-24T06:59:20.830Z,963.38
2016-08-24T07:00:28.795Z,963.38
2016-08-24T07:01:23.403Z,963.36
2016-08-24T07:02:34.736Z,963.40
2016-08-24T07:03:23.167Z,963.35
2016-08-24T07:04:26.288Z,963.31
2016-08-24T07:06:41.871Z,963.39
2016-08-24T07:07:28.373Z,963.38
2016-08-24T07:08:20.890Z,963.36
2016-08-24T07:09:25.163Z,963.36
2016-08-24T07:10:27.348Z,963.30
2016-08-24T07:11:18.566Z,963.35
2016-08-24T07:12:35.109Z,963.30
2016-08-24T07:13:18.259Z,963.35
2016-08-24T07:14:27.524Z,963.30
2016-08-24T07:16:27.636Z,963.23
2016-08-24T07:17:20.091Z,963.26
2016-08-24T07:18:27.590Z,963.28
2016-08-24T07:19:25.448Z,963.28
2016-08-24T07:20:24.582Z,963.25
2016-08-24T07:21:29.026Z,963.24
2016-08-24T07:22:28.745Z,963.23
2016-08-24T07:23:27.977Z,963.28
2016-08-24T07:24:32.917Z,963.27
2016-08-24T07:25:19.373Z,963.29
2016-08-24T07:26:28.185Z,963.31
2016-08-24T07:28:24.640Z,963.32
2016-08-24T07:29:17.987Z,963.24
2016-08-24T07:30:29.167Z,963.27
2016-08-24T07:31:25.229Z,963.28
2016-08-24T07:32:22.343Z,963.31
2016-08-24T07:33:19.412Z,963.29
2016-08-24T07:34:28.716Z,963.31
2016-08-24T07:35:18.453Z,963.32
2016-08-24T07:36:17.935Z,963.31
2016-08-24T07:37:35.511Z,963.33
2016-08-24T07:38:21.428Z,963.30
2016-08-24T07:39:18.744Z,963.36
2016-08-24T07:40:18.907Z,963.34
2016-08-24T07:41:22.556Z,963.34
2016-08-24T07:42:34.920Z,963.37
2016-08-24T07:44:19.249Z,963.34
2016-08-24T07:45:20.292Z,963.38
2016-08-24T07:46:34.994Z,963.36
2016-08-24T07:47:26.619Z,963.34
2016-08-24T07:50:17.682Z,963.38
2016-08-24T07:51:24.854Z,963.37
2016-08-24T07:55:28.755Z,963.36
2016-08-24T07:56:26.347Z,963.30
2016-08-24T07:57:26.037Z,963.37
2016-08-24T07:58:12.800Z,963.35
2016-08-24T07:59:34.693Z,963.30
2016-08-24T08:01:29.526Z,963.33
2016-08-24T08:02:21.187Z,963.31
2016-08-24T08:03:12.561Z,963.35
2016-08-24T08:04:26.642Z,963.38
2016-08-24T08:05:29.414Z,963.31
2016-08-24T08:06:24.651Z,963.36
2016-08-24T08:07:18.354Z,963.30
2016-08-24T08:08:25.269Z,963.31
2016-08-24T08:09:31.793Z,963.31
2016-08-24T08:10:26.929Z,963.35
2016-08-24T08:11:18.724Z,963.31
2016-08-24T08:12:20.131Z,963.30
2016-08-24T08:13:28.851Z,963.26
2016-08-24T08:14:25.514Z,963.30
2016-08-24T08:15:26.589Z,963.29
2016-08-24T08:16:28.973Z,963.29
2016-08-24T08:17:27.053Z,963.33
2016-08-24T08:18:33.575Z,963.32
2016-08-24T08:19:27.549Z,963.31
2016-08-24T08:20:20.205Z,963.28
2016-08-24T08:21:28.998Z,963.32
2016-08-24T08:22:23.992Z,963.27
2016-08-24T08:23:24.035Z,963.35
2016-08-24T08:24:18.157Z,963.29
2016-08-24T08:25:17.958Z,963.26
2016-08-24T08:26:34.903Z,963.25
2016-08-24T08:27:29.202Z,963.28
2016-08-24T08:28:32.884Z,963.26
2016-08-24T08:29:18.515Z,963.23
2016-08-24T08:30:33.429Z,963.25
2016-08-24T08:33:19.062Z,963.25
2016-08-24T08:34:34.543Z,963.24
2016-08-24T08:35:20.841Z,963.25
2016-08-24T08:36:22.219Z,963.23
2016-08-24T08:37:26.749Z,963.26
2016-08-24T08:38:25.921Z,963.21
2016-08-24T08:39:23.339Z,963.26
2016-08-24T08:40:34.377Z,963.19
2016-08-24T08:41:22.914Z,963.20
2016-08-24T08:42:18.515Z,963.21
2016-08-24T08:44:27.413Z,963.21
2016-08-24T08:45:26.641Z,963.16
2016-08-24T08:47:23.845Z,963.19
2016-08-24T08:48:37.203Z,963.15
2016-08-24T08:49:31.917Z,963.15
2016-08-24T08:50:22.954Z,963.16
2016-08-24T08:51:22.652Z,963.12
2016-08-24T08:52:20.173Z,963.08
2016-08-24T08:53:23.057Z,963.15
2016-08-24T08:54:32.162Z,963.15
2016-08-24T08:55:18.273Z,963.11
2016-08-24T08:56:17.154Z,963.10
2016-08-24T08:57:21.808Z,963.14
2016-08-24T08:58:25.416Z,963.14
2016-08-24T09:00:19.318Z,963.12
2016-08-24T09:01:26.773Z,963.11
2016-08-24T09:03:30.100Z,963.11
2016-08-24T09:04:40.078Z,963.09
2016-08-24T09:05:29.393Z,963.09
2016-08-24T09:06:29.112Z,963.05
2016-08-24T09:07:25.014Z,963.05
2016-08-24T09:08:18.561Z,963.08
2016-08-24T09:09:14.730Z,963.05
2016-08-24T09:10:24.854Z,963.07
2016-08-24T09:11:18.244Z,963.09
2016-08-24T09:12:37.497Z,963.08
2016-08-24T09:14:28.239Z,963.07
2016-08-24T09:16:19.175Z,963.08
2016-08-24T09:17:21.033Z,963.08
2016-08-24T09:18:27.044Z,963.08
2016-08-24T09:19:19.089Z,963.01
2016-08-24T09:21:18.017Z,962.98
2016-08-24T09:22:21.477Z,962.99
2016-08-24T09:23:30.025Z,962.97
2016-08-24T09:24:18.064Z,962.97
2016-08-24T09:25:27.593Z,963.03
2016-08-24T09:26:19.354Z,963.02
2016-08-24T09:27:25.047Z,962.99
2016-08-24T09:28:25.255Z,963.01
2016-08-24T09:29:20.824Z,963.02
2016-08-24T09:30:19.168Z,963.01
2016-08-24T09:31:18.035Z,963.03
2016-08-24T09:32:27.066Z,963.01
2016-08-24T09:34:25.073Z,963.03
2016-08-24T09:35:17.785Z,963.04
2016-08-24T09:36:24.922Z,963.12
2016-08-24T09:37:24.691Z,963.07
2016-08-24T09:39:39.915Z,963.12
2016-08-24T09:40:44.955Z,963.11
2016-08-24T09:41:27.913Z,963.10
2016-08-24T09:42:19.726Z,963.06
2016-08-24T09:43:18.714Z,963.07
2016-08-24T09:45:24.597Z,963.03
2016-08-24T09:46:18.997Z,963.03
2016-08-24T09:48:22.883Z,963.00
2016-08-24T09:49:27.684Z,963.00
2016-08-24T09:50:19.318Z,962.97
2016-08-24T09:51:56.757Z,962.96
2016-08-24T09:52:18.285Z,962.92
2016-08-24T09:53:39.464Z,962.96
2016-08-24T09:54:22.115Z,962.94
2016-08-24T09:55:26.712Z,962.94
2016-08-24T09:56:14.080Z,962.93
2016-08-24T09:57:22.705Z,962.95
2016-08-24T09:58:21.024Z,962.88
2016-08-24T10:00:25.328Z,962.87
2016-08-24T10:01:18.036Z,962.85
2016-08-24T10:02:28.019Z,962.86
2016-08-24T10:04:29.649Z,962.88
2016-08-24T10:06:28.104Z,962.91
2016-08-24T10:08:36.381Z,962.88
2016-08-24T10:09:24.461Z,962.87
2016-08-24T10:10:28.512Z,962.90
2016-08-24T10:11:34.231Z,962.91
2016-08-24T10:12:22.049Z,962.88
2016-08-24T10:13:21.729Z,962.84
2016-08-24T10:14:27.806Z,962.81
2016-08-24T10:15:18.350Z,962.87
2016-08-24T10:16:19.674Z,962.86
2016-08-24T10:17:17.972Z,962.87
2016-08-24T10:18:19.172Z,962.85
2016-08-24T10:19:18.161Z,962.84
2016-08-24T10:22:18.683Z,962.79
2016-08-24T10:23:13.856Z,962.85
2016-08-24T10:24:18.930Z,962.88
2016-08-24T10:25:24.345Z,962.84
2016-08-24T10:27:27.484Z,962.77
2016-08-24T10:28:22.021Z,962.76
2016-08-24T10:30:17.362Z,962.79
2016-08-24T10:31:58.535Z,962.79
2016-08-24T10:32:22.829Z,962.79
2016-08-24T10:33:20.984Z,962.80
2016-08-24T10:34:18.136Z,962.84
2016-08-24T10:35:22.708Z,962.83
2016-08-24T10:36:18.426Z,962.83
2016-08-24T10:37:18.152Z,962.77
2016-08-24T10:39:34.448Z,962.81
2016-08-24T10:41:24.938Z,962.73
2016-08-24T10:42:34.261Z,962.74
2016-08-24T10:44:20.622Z,962.72
2016-08-24T10:46:39.924Z,962.72
2016-08-24T10:47:24.666Z,962.74
2016-08-24T10:51:19.847Z,962.59
2016-08-24T10:52:21.068Z,962.66
2016-08-24T10:53:17.655Z,962.60
2016-08-24T10:54:22.954Z,962.67
2016-08-24T10:55:18.658Z,962.66
2016-08-24T10:56:20.691Z,962.63
2016-08-24T10:57:16.981Z,962.58
2016-08-24T10:58:19.881Z,962.61
2016-08-24T10:59:17.257Z,962.63
2016-08-24T11:00:29.493Z,962.65
2016-08-24T11:01:34.513Z,962.67
2016-08-24T11:03:25.646Z,962.64
2016-08-24T11:04:23.743Z,962.68
2016-08-24T11:05:22.754Z,962.69
2016-08-24T11:06:19.661Z,962.61
2016-08-24T11:07:35.873Z,962.59
2016-08-24T11:08:23.373Z,962.60
2016-08-24T11:09:24.660Z,962.59
2016-08-24T11:10:35.586Z,962.61
2016-08-24T11:11:46.891Z,962.59
2016-08-24T11:12:26.643Z,962.58
2016-08-24T11:13:18.498Z,962.58
2016-08-24T11:14:27.901Z,962.53
2016-08-24T11:15:18.214Z,962.50
2016-08-24T11:16:28.206Z,962.51
2016-08-24T11:17:23.356Z,962.53
2016-08-24T11:18:20.343Z,962.45
2016-08-24T11:19:41.495Z,962.48
2016-08-24T11:20:17.630Z,962.50
2016-08-24T11:21:18.413Z,962.47
2016-08-24T11:22:18.888Z,962.48
2016-08-24T11:23:26.938Z,962.45
2016-08-24T11:24:18.600Z,962.50
2016-08-24T11:25:27.034Z,962.47
2016-08-24T11:26:22.537Z,962.45
2016-08-24T11:27:19.157Z,962.42
2016-08-24T11:28:27.474Z,962.47
2016-08-24T11:29:20.826Z,962.41
2016-08-24T11:30:20.343Z,962.38
2016-08-24T11:32:23.145Z,962.43
2016-08-24T11:33:25.404Z,962.37
2016-08-24T11:34:29.219Z,962.38
2016-08-24T11:35:28.018Z,962.35
2016-08-24T11:36:19.890Z,962.35
2016-08-24T11:37:29.264Z,962.40
2016-08-24T11:38:45.428Z,962.42
2016-08-24T11:39:34.591Z,962.42
2016-08-24T11:40:28.854Z,962.40
2016-08-24T11:41:22.892Z,962.41
2016-08-24T11:42:20.576Z,962.39
2016-08-24T11:43:26.582Z,962.39
2016-08-24T11:44:35.453Z,962.45
2016-08-24T11:45:18.697Z,962.43
2016-08-24T11:46:13.470Z,962.43
2016-08-24T11:47:26.269Z,962.40
2016-08-24T11:48:24.605Z,962.44
2016-08-24T11:49:33.648Z,962.46
2016-08-24T11:50:23.794Z,962.44
2016-08-24T11:51:29.491Z,962.44
2016-08-24T11:52:27.624Z,962.42
2016-08-24T11:53:24.873Z,962.42
2016-08-24T11:54:22.306Z,962.36
2016-08-24T11:56:19.992Z,962.36
2016-08-24T11:57:21.514Z,962.39
2016-08-24T11:58:43.454Z,962.34
2016-08-24T11:59:26.246Z,962.27
2016-08-24T12:00:20.730Z,962.34
2016-08-24T12:01:34.895Z,962.34
2016-08-24T12:02:27.896Z,962.34
2016-08-24T12:03:20.136Z,962.37
2016-08-24T12:04:24.544Z,962.35
2016-08-24T12:05:28.293Z,962.33
2016-08-24T12:06:29.101Z,962.31
2016-08-24T12:07:36.291Z,962.32
2016-08-24T12:08:42.319Z,962.26
2016-08-24T12:09:16.309Z,962.25
2016-08-24T12:10:28.321Z,962.28
2016-08-24T12:11:17.193Z,962.22
2016-08-24T12:12:28.122Z,962.25
2016-08-24T12:13:29.753Z,962.27
2016-08-24T12:14:27.679Z,962.24
2016-08-24T12:15:21.928Z,962.25
2016-08-24T12:16:20.081Z,962.25
2016-08-24T12:17:35.395Z,962.22
2016-08-24T12:18:28.745Z,962.23
2016-08-24T12:19:18.279Z,962.22
2016-08-24T12:20:37.507Z,962.21
2016-08-24T12:21:21.870Z,962.28
2016-08-24T12:22:16.865Z,962.19
2016-08-24T12:24:22.218Z,962.22
2016-08-24T12:25:20.972Z,962.22
2016-08-24T12:26:23.908Z,962.16
2016-08-24T12:27:24.736Z,962.17
2016-08-24T12:28:25.678Z,962.19
2016-08-24T12:29:33.681Z,962.13
2016-08-24T12:30:35.061Z,962.16
2016-08-24T12:31:21.424Z,962.14
2016-08-24T12:32:18.349Z,962.17
2016-08-24T12:33:19.609Z,962.22
2016-08-24T12:34:38.418Z,962.19
2016-08-24T12:35:21.172Z,962.20
2016-08-24T12:36:21.896Z,962.15
2016-08-24T12:37:34.856Z,962.10
2016-08-24T12:38:28.279Z,962.09
2016-08-24T12:40:43.857Z,962.10
2016-08-24T12:41:24.615Z,962.14
2016-08-24T12:42:24.132Z,962.11
2016-08-24T12:43:14.336Z,962.13
2016-08-24T12:44:21.289Z,962.15
2016-08-24T12:45:27.603Z,962.16
2016-08-24T12:46:29.263Z,962.10
2016-08-24T12:47:20.946Z,962.10
2016-08-24T12:48:27.661Z,962.09
2016-08-24T12:49:28.975Z,962.12
2016-08-24T12:50:26.665Z,962.09
2016-08-24T12:51:29.149Z,962.08
2016-08-24T12:52:26.733Z,962.07
2016-08-24T12:53:19.783Z,962.06
2016-08-24T12:54:28.934Z,962.10
2016-08-24T12:56:28.276Z,962.06
2016-08-24T12:57:32.630Z,962.06
2016-08-24T12:58:40.357Z,962.06
2016-08-24T12:59:43.674Z,962.05
2016-08-24T13:00:34.451Z,962.05
2016-08-24T13:01:22.613Z,962.06
2016-08-24T13:02:15.415Z,961.98
2016-08-24T13:03:23.243Z,961.99
2016-08-24T13:04:28.884Z,961.98
2016-08-24T13:05:35.044Z,961.99
2016-08-24T13:06:18.343Z,961.95
2016-08-24T13:07:25.740Z,961.93
2016-08-24T13:08:21.656Z,961.97
2016-08-24T13:09:26.288Z,961.98
2016-08-24T13:10:23.754Z,962.02
2016-08-24T13:13:34.467Z,961.95
2016-08-24T13:15:32.652Z,961.94
2016-08-24T13:16:17.820Z,961.87
2016-08-24T13:17:46.451Z,961.90
2016-08-24T13:18:21.644Z,961.87
2016-08-24T13:19:22.480Z,961.90
2016-08-24T13:20:18.875Z,961.93
2016-08-24T13:21:20.011Z,961.88
2016-08-24T13:22:21.744Z,961.90
2016-08-24T13:23:34.081Z,961.89
2016-08-24T13:24:42.110Z,961.91
2016-08-24T13:25:20.314Z,961.87
2016-08-24T13:26:24.569Z,961.88
2016-08-24T13:27:16.066Z,961.87
2016-08-24T13:28:21.960Z,961.85
2016-08-24T13:29:23.531Z,961.88
2016-08-24T13:30:39.437Z,961.88
2016-08-24T13:31:33.810Z,961.89
2016-08-24T13:32:18.022Z,961.93
2016-08-24T13:33:39.043Z,961.89
2016-08-24T13:34:32.314Z,961.86
2016-08-24T13:36:19.255Z,961.89
2016-08-24T13:37:22.642Z,961.87
2016-08-24T13:38:34.362Z,961.87
2016-08-24T13:39:28.374Z,961.89
2016-08-24T13:40:19.524Z,961.89
2016-08-24T13:41:28.630Z,961.89
2016-08-24T13:42:19.919Z,961.88
2016-08-24T13:43:41.952Z,961.83
2016-08-24T13:44:28.971Z,961.87